createdAt,value
2023-01-02T00:01:05.005Z,101426.06
2023-01-02T00:03:32.062Z,101426.16
2023-01-02T00:05:58.782Z,101422.78
2023-01-02T00:08:25.332Z,101426.50
2023-01-02T00:10:53.144Z,101425.03
2023-01-02T00:13:20.055Z,101425.19
2023-01-02T00:15:46.693Z,101418.88
2023-01-02T00:18:13.286Z,101418.25
2023-01-02T00:20:39.927Z,101411.88
2023-01-02T00:23:06.999Z,101411.03
2023-01-02T00:25:37.563Z,101411.72
2023-01-02T00:28:04.607Z,101418.88
2023-01-02T00:30:38.040Z,101413.59
2023-01-02T00:33:06.059Z,101411.88
2023-01-02T00:35:32.886Z,101411.13
2023-01-02T00:37:59.440Z,101410.16
2023-01-02T00:40:26.043Z,101420.94
2023-01-02T00:42:52.578Z,101411.28
2023-01-02T00:45:20.793Z,101425.78
2023-01-02T00:47:47.350Z,101424.06
2023-01-02T00:50:13.947Z,101414.38
2023-01-02T00:52:40.511Z,101412.75
2023-01-02T00:55:07.662Z,101429.63
2023-01-02T00:57:34.294Z,101428.94
2023-01-02T01:00:00.984Z,101428.22
2023-01-02T01:02:27.773Z,101427.34
2023-01-02T01:04:54.443Z,101429.19
2023-01-02T01:07:20.989Z,101421.28
2023-01-02T01:09:47.580Z,101417.06
2023-01-02T01:12:14.235Z,101413.66
2023-01-02T01:14:40.823Z,101416.34
2023-01-02T01:17:07.481Z,101418.09
2023-01-02T01:19:35.790Z,101413.53
2023-01-02T01:22:02.553Z,101418.94
2023-01-02T01:24:29.582Z,101422.50
2023-01-02T01:26:56.157Z,101427.75
2023-01-02T01:29:22.887Z,101426.00
2023-01-02T01:31:49.560Z,101415.41
2023-01-02T01:34:16.524Z,101408.31
2023-01-02T01:36:43.075Z,101409.97
2023-01-02T01:39:09.750Z,101399.13
2023-01-02T01:41:36.328Z,101406.09
2023-01-02T01:44:41.471Z,101395.13
2023-01-02T01:47:32.547Z,101391.25
2023-01-02T01:50:09.260Z,101377.66
2023-01-02T01:52:41.223Z,101368.41
2023-01-02T01:55:10.184Z,101369.72
2023-01-02T01:57:41.117Z,101371.97
2023-01-02T02:00:08.641Z,101370.75
2023-01-02T02:02:36.470Z,101375.94
2023-01-02T02:05:06.272Z,101362.47
2023-01-02T02:07:35.599Z,101365.91
2023-01-02T02:10:12.248Z,101358.66
2023-01-02T02:12:38.818Z,101354.94
2023-01-02T02:15:10.860Z,101350.41
2023-01-02T02:17:56.096Z,101344.84
2023-01-02T02:20:34.581Z,101354.50
2023-01-02T02:23:19.315Z,101352.63
2023-01-02T02:26:04.053Z,101346.22
2023-01-02T02:29:02.756Z,101350.53
2023-01-02T02:32:03.188Z,101344.41
2023-01-02T02:34:43.748Z,101326.44
2023-01-02T02:37:13.099Z,101339.59
2023-01-02T02:39:54.728Z,101335.06
2023-01-02T02:43:01.145Z,101343.91
2023-01-02T02:45:40.202Z,101346.47
2023-01-02T02:48:46.887Z,101332.16
2023-01-02T02:51:33.138Z,101342.66
2023-01-02T02:54:05.466Z,101331.88
2023-01-02T02:56:32.202Z,101337.22
2023-01-02T02:58:59.517Z,101337.22
2023-01-02T03:01:30.544Z,101335.31
2023-01-02T03:03:58.091Z,101326.31
2023-01-02T03:06:33.587Z,101328.06
2023-01-02T03:09:03.079Z,101327.97
2023-01-02T03:11:55.831Z,101333.31
2023-01-02T03:14:32.347Z,101332.47
2023-01-02T03:17:05.533Z,101327.88
2023-01-02T03:19:37.712Z,101327.78
2023-01-02T03:22:32.101Z,101320.59
2023-01-02T03:24:59.276Z,101331.31
2023-01-02T03:27:31.087Z,101329.44
2023-01-02T03:30:04.153Z,101325.72
2023-01-02T03:32:35.601Z,101333.75
2023-01-02T03:35:09.666Z,101324.84
2023-01-02T03:37:39.491Z,101327.44
2023-01-02T03:40:15.836Z,101324.75
2023-01-02T03:42:49.566Z,101325.78
2023-01-02T03:45:21.455Z,101336.50
2023-01-02T03:48:09.555Z,101330.28
2023-01-02T03:50:50.914Z,101332.94
2023-01-02T03:53:17.560Z,101327.72
2023-01-02T03:56:00.585Z,101325.97
2023-01-02T03:58:47.408Z,101329.59
2023-01-02T04:01:47.961Z,101325.13
2023-01-02T04:04:38.790Z,101336.66
2023-01-02T04:07:13.721Z,101336.66
2023-01-02T04:09:42.981Z,101342.13
2023-01-02T04:12:14.031Z,101335.06
2023-01-02T04:14:47.126Z,101338.66
2023-01-02T04:17:16.523Z,101331.59
2023-01-02T04:19:48.114Z,101325.41
2023-01-02T04:22:37.587Z,101331.69
2023-01-02T04:25:10.940Z,101341.47
2023-01-02T04:27:47.257Z,101339.72
2023-01-02T04:30:13.948Z,101337.16
2023-01-02T04:32:45.345Z,101345.25
2023-01-02T04:35:17.125Z,101341.72
2023-01-02T04:37:44.632Z,101345.34
2023-01-02T04:40:24.677Z,101348.03
2023-01-02T04:42:51.690Z,101348.91
2023-01-02T04:45:18.251Z,101344.38
2023-01-02T04:47:44.885Z,101347.19
2023-01-02T04:50:11.501Z,101345.34
2023-01-02T04:52:38.116Z,101357.88
2023-01-02T04:55:07.704Z,101350.78
2023-01-02T04:57:34.532Z,101356.06
2023-01-02T05:00:01.475Z,101344.56
2023-01-02T05:02:28.378Z,101343.69
2023-01-02T05:04:55.027Z,101354.41
2023-01-02T05:07:21.572Z,101350.00
2023-01-02T05:09:48.112Z,101349.06
2023-01-02T05:12:14.836Z,101345.63
2023-01-02T05:14:41.389Z,101354.41
2023-01-02T05:17:07.948Z,101354.50
2023-01-02T05:19:34.509Z,101355.44
2023-01-02T05:22:19.964Z,101347.41
2023-01-02T05:24:46.518Z,101346.56
2023-01-02T05:27:13.736Z,101343.03
2023-01-02T05:29:40.308Z,101340.44
2023-01-02T05:32:06.883Z,101349.41
2023-01-02T05:34:33.438Z,101348.66
2023-01-02T05:37:00.008Z,101348.66
2023-01-02T05:39:26.781Z,101349.59
2023-01-02T05:41:53.388Z,101345.19
2023-01-02T05:44:19.976Z,101339.81
2023-01-02T05:46:46.584Z,101343.66
2023-01-02T05:49:13.258Z,101344.69
2023-01-02T05:51:39.892Z,101335.78
2023-01-02T05:54:06.635Z,101342.09
2023-01-02T05:56:33.281Z,101339.50
2023-01-02T05:58:59.818Z,101343.13
2023-01-02T06:01:29.479Z,101348.56
2023-01-02T06:03:58.245Z,101330.88
2023-01-02T06:06:29.484Z,101345.03
2023-01-02T06:08:56.105Z,101343.31
2023-01-02T06:11:22.742Z,101339.78
2023-01-02T06:13:49.387Z,101337.09
2023-01-02T06:16:16.060Z,101338.06
2023-01-02T06:18:42.688Z,101347.81
2023-01-02T06:21:12.117Z,101347.81
2023-01-02T06:23:39.311Z,101346.84
2023-01-02T06:26:17.696Z,101341.50
2023-01-02T06:28:45.535Z,101337.09
2023-01-02T06:31:15.218Z,101337.09
2023-01-02T06:33:41.903Z,101339.84
2023-01-02T06:36:16.774Z,101345.19
2023-01-02T06:38:44.078Z,101345.13
2023-01-02T06:41:10.895Z,101342.44
2023-01-02T06:43:46.208Z,101342.44
2023-01-02T06:46:13.995Z,101338.81
2023-01-02T06:48:41.634Z,101342.44
2023-01-02T06:51:10.827Z,101340.66
2023-01-02T06:53:39.598Z,101347.72
2023-01-02T06:56:07.508Z,101353.16
2023-01-02T06:58:36.041Z,101359.25
2023-01-02T07:01:08.185Z,101361.09
2023-01-02T07:03:36.259Z,101347.59
2023-01-02T07:06:09.154Z,101354.72
2023-01-02T07:08:36.138Z,101356.44
2023-01-02T07:11:09.753Z,101361.69
2023-01-02T07:13:36.804Z,101361.69
2023-01-02T07:16:05.467Z,101361.59
2023-01-02T07:18:32.808Z,101364.25
2023-01-02T07:21:00.029Z,101371.25
2023-01-02T07:23:26.937Z,101371.19
2023-01-02T07:25:59.002Z,101365.81
2023-01-02T07:28:26.080Z,101376.19
2023-01-02T07:30:57.159Z,101375.22
2023-01-02T07:33:23.847Z,101376.94
2023-01-02T07:35:50.474Z,101370.75
2023-01-02T07:38:17.029Z,101375.13
2023-01-02T07:40:43.563Z,101376.94
2023-01-02T07:43:10.117Z,101376.78
2023-01-02T07:45:36.708Z,101374.88
2023-01-02T07:48:03.457Z,101371.06
2023-01-02T07:50:30.046Z,101372.72
2023-01-02T07:52:56.656Z,101374.34
2023-01-02T07:55:23.254Z,101368.03
2023-01-02T07:57:49.906Z,101363.56
2023-01-02T08:00:18.236Z,101367.06
2023-01-02T08:02:45.814Z,101364.41
2023-01-02T08:05:12.400Z,101366.03
2023-01-02T08:07:44.624Z,101369.31
2023-01-02T08:10:12.420Z,101372.66
2023-01-02T08:12:39.228Z,101365.16
2023-01-02T08:15:06.673Z,101366.59
2023-01-02T08:17:33.315Z,101369.19
2023-01-02T08:20:06.825Z,101370.81
2023-01-02T08:22:34.037Z,101372.53
2023-01-02T08:25:00.585Z,101375.03
2023-01-02T08:27:27.194Z,101372.97
2023-01-02T08:29:53.747Z,101374.47
2023-01-02T08:32:20.368Z,101374.41
2023-01-02T08:34:46.940Z,101369.72
2023-01-02T08:37:13.963Z,101370.50
2023-01-02T08:39:40.705Z,101372.91
2023-01-02T08:42:07.672Z,101371.94
2023-01-02T08:44:35.920Z,101367.53
2023-01-02T08:47:02.507Z,101376.41
2023-01-02T08:49:29.052Z,101375.47
2023-01-02T08:51:55.668Z,101381.59
2023-01-02T08:54:22.546Z,101383.25
2023-01-02T08:56:49.206Z,101385.72
2023-01-02T08:59:15.832Z,101385.53
2023-01-02T09:01:43.094Z,101387.19
2023-01-02T09:04:12.958Z,101383.53
2023-01-02T09:06:41.066Z,101385.16
2023-01-02T09:09:11.897Z,101376.84
2023-01-02T09:11:52.542Z,101377.41
2023-01-02T09:14:21.069Z,101376.38
2023-01-02T09:16:48.225Z,101378.00
2023-01-02T09:19:14.801Z,101378.09
2023-01-02T09:21:41.412Z,101379.06
2023-01-02T09:24:08.818Z,101380.97
2023-01-02T09:26:35.403Z,101382.69
2023-01-02T09:29:02.007Z,101377.41
2023-01-02T09:31:28.675Z,101363.94
2023-01-02T09:33:55.350Z,101362.88
2023-01-02T09:36:22.662Z,101367.28
2023-01-02T09:38:58.001Z,101358.28
2023-01-02T09:41:40.404Z,101351.84
2023-01-02T09:44:37.417Z,101346.31
2023-01-02T09:47:06.914Z,101346.19
2023-01-02T09:49:42.274Z,101335.31
2023-01-02T09:52:20.019Z,101336.19
2023-01-02T09:54:46.700Z,101336.94
2023-01-02T09:57:28.445Z,101335.88
2023-01-02T10:00:17.087Z,101336.53
2023-01-02T10:02:51.889Z,101329.25
2023-01-02T10:05:33.383Z,101323.69
2023-01-02T10:08:10.889Z,101321.78
2023-01-02T10:10:46.512Z,101325.13
2023-01-02T10:14:08.387Z,101311.53
2023-01-02T10:16:22.211Z,101313.06
2023-01-02T10:18:52.831Z,101320.78
2023-01-02T10:21:40.668Z,101309.84
2023-01-02T10:24:18.012Z,101305.34
2023-01-02T10:26:51.387Z,101304.31
2023-01-02T10:29:27.281Z,101304.31
2023-01-02T10:32:00.423Z,101298.06
2023-01-02T10:34:36.727Z,101291.72
2023-01-02T10:37:10.928Z,101288.84
2023-01-02T10:39:37.475Z,101280.63
2023-01-02T10:42:06.801Z,101276.66
2023-01-02T10:44:35.423Z,101278.94
2023-01-02T10:47:21.414Z,101275.13
2023-01-02T10:49:49.406Z,101274.91
2023-01-02T10:52:39.984Z,101257.66
2023-01-02T10:55:06.874Z,101256.50
2023-01-02T10:57:52.006Z,101258.75
2023-01-02T11:00:24.144Z,101252.88
2023-01-02T11:03:00.128Z,101246.94
2023-01-02T11:05:31.260Z,101248.28
2023-01-02T11:07:58.657Z,101253.22
2023-01-02T11:10:29.057Z,101240.22
2023-01-02T11:12:56.472Z,101236.03
2023-01-02T11:15:30.992Z,101246.56
2023-01-02T11:17:58.834Z,101235.16
2023-01-02T11:20:27.332Z,101237.31
2023-01-02T11:22:57.180Z,101233.22
2023-01-02T11:25:29.321Z,101232.88
2023-01-02T11:28:00.715Z,101220.19
2023-01-02T11:30:33.140Z,101218.03
2023-01-02T11:33:19.875Z,101216.16
2023-01-02T11:35:50.800Z,101212.22
2023-01-02T11:38:28.663Z,101206.75
2023-01-02T11:40:59.702Z,101204.34
2023-01-02T11:43:52.100Z,101203.94
2023-01-02T11:46:21.865Z,101192.59
2023-01-02T11:48:49.349Z,101185.19
2023-01-02T11:51:17.848Z,101189.66
2023-01-02T11:53:48.362Z,101179.47
2023-01-02T11:56:25.960Z,101175.56
2023-01-02T11:58:59.267Z,101167.69
2023-01-02T12:01:25.793Z,101172.06
2023-01-02T12:03:52.678Z,101170.25
2023-01-02T12:06:22.530Z,101157.59
2023-01-02T12:09:06.400Z,101152.72
2023-01-02T12:11:51.141Z,101158.34
2023-01-02T12:14:28.742Z,101155.78
2023-01-02T12:16:58.381Z,101160.75
2023-01-02T12:19:34.535Z,101154.00
2023-01-02T12:22:22.892Z,101142.88
2023-01-02T12:25:05.988Z,101149.66
2023-01-02T12:27:35.233Z,101140.63
2023-01-02T12:30:04.697Z,101149.47
2023-01-02T12:32:56.001Z,101149.97
2023-01-02T12:35:47.714Z,101152.34
2023-01-02T12:38:33.077Z,101148.09
2023-01-02T12:41:21.722Z,101145.22
2023-01-02T12:44:14.493Z,101145.19
2023-01-02T12:47:12.876Z,101139.91
2023-01-02T12:49:56.465Z,101138.03
2023-01-02T12:52:31.699Z,101130.38
2023-01-02T12:55:11.140Z,101129.25
2023-01-02T12:57:55.981Z,101131.56
2023-01-02T13:00:25.529Z,101125.16
2023-01-02T13:03:01.320Z,101123.38
2023-01-02T13:05:36.947Z,101123.34
2023-01-02T13:08:22.250Z,101126.91
2023-01-02T13:10:50.635Z,101124.97
2023-01-02T13:13:17.331Z,101122.75
2023-01-02T13:15:52.171Z,101124.34
2023-01-02T13:19:00.723Z,101120.66
2023-01-02T13:21:40.303Z,101120.50
2023-01-02T13:24:11.209Z,101123.84
2023-01-02T13:26:38.730Z,101123.16
2023-01-02T13:29:06.984Z,101119.34
2023-01-02T13:31:46.564Z,101118.88
2023-01-02T13:34:29.750Z,101115.31
2023-01-02T13:37:09.674Z,101115.09
2023-01-02T13:39:42.121Z,101116.69
2023-01-02T13:42:38.351Z,101116.31
2023-01-02T13:45:12.580Z,101121.38
2023-01-02T13:47:48.225Z,101116.78
2023-01-02T13:50:21.277Z,101108.81
2023-01-02T13:53:03.199Z,101119.09
2023-01-02T13:55:31.545Z,101114.00
2023-01-02T13:58:13.483Z,101123.28
2023-01-02T14:00:57.927Z,101125.69
2023-01-02T14:03:24.557Z,101126.22
2023-01-02T14:05:57.061Z,101136.00
2023-01-02T14:08:42.349Z,101135.16
2023-01-02T14:11:10.352Z,101138.88
2023-01-02T14:13:52.331Z,101137.47
2023-01-02T14:16:41.267Z,101134.91
2023-01-02T14:19:13.584Z,101132.31
2023-01-02T14:21:45.856Z,101132.31
2023-01-02T14:24:29.600Z,101132.56
2023-01-02T14:27:00.720Z,101132.69
2023-01-02T14:29:29.403Z,101132.44
2023-01-02T14:32:09.770Z,101142.31
2023-01-02T14:34:48.590Z,101141.53
2023-01-02T14:37:47.588Z,101144.78
2023-01-02T14:40:17.821Z,101140.81
2023-01-02T14:43:06.483Z,101146.25
2023-01-02T14:45:35.216Z,101144.50
2023-01-02T14:48:08.339Z,101142.47
2023-01-02T14:50:37.369Z,101134.06
2023-01-02T14:53:25.351Z,101146.50
2023-01-02T14:55:58.373Z,101143.81
2023-01-02T14:58:40.709Z,101148.63
2023-01-02T15:01:08.766Z,101143.44
2023-01-02T15:03:50.676Z,101144.03
2023-01-02T15:06:28.501Z,101138.34
2023-01-02T15:09:07.269Z,101139.63
2023-01-02T15:11:52.515Z,101132.72
2023-01-02T15:14:23.765Z,101136.69
2023-01-02T15:16:58.471Z,101137.50
2023-01-02T15:19:33.458Z,101133.25
2023-01-02T15:22:09.713Z,101134.16
2023-01-02T15:24:36.307Z,101146.09
2023-01-02T15:27:23.099Z,101138.16
2023-01-02T15:29:53.749Z,101141.19
2023-01-02T15:32:34.137Z,101145.50
2023-01-02T15:35:15.777Z,101144.47
2023-01-02T15:37:46.805Z,101141.25
2023-01-02T15:40:34.949Z,101138.03
2023-01-02T15:43:29.473Z,101141.78
2023-01-02T15:45:56.379Z,101150.41
2023-01-02T15:48:28.963Z,101145.13
2023-01-02T15:50:58.081Z,101148.88
2023-01-02T15:53:30.555Z,101150.09
2023-01-02T15:55:58.414Z,101150.41
2023-01-02T15:58:31.718Z,101150.53
2023-01-02T16:01:19.096Z,101158.97
2023-01-02T16:04:01.739Z,101156.53
2023-01-02T16:06:35.516Z,101158.47
2023-01-02T16:09:05.288Z,101161.25
2023-01-02T16:11:43.059Z,101157.94
2023-01-02T16:14:34.177Z,101163.50
2023-01-02T16:17:21.168Z,101159.00
2023-01-02T16:19:59.954Z,101158.03
2023-01-02T16:22:41.585Z,101157.84
2023-01-02T16:25:35.792Z,101166.97
2023-01-02T16:28:02.375Z,101162.53
2023-01-02T16:30:32.513Z,101164.38
2023-01-02T16:33:18.838Z,101172.53
2023-01-02T16:35:59.937Z,101169.94
2023-01-02T16:38:27.681Z,101169.09
2023-01-02T16:41:12.380Z,101176.19
2023-01-02T16:43:46.242Z,101169.28
2023-01-02T16:46:16.038Z,101161.47
2023-01-02T16:48:44.136Z,101165.97
2023-01-02T16:51:13.860Z,101168.09
2023-01-02T16:53:43.490Z,101160.16
2023-01-02T16:56:16.515Z,101168.44
2023-01-02T16:58:43.144Z,101167.00
2023-01-02T17:01:13.258Z,101172.56
2023-01-02T17:03:40.097Z,101167.28
2023-01-02T17:06:13.460Z,101171.03
2023-01-02T17:08:40.100Z,101173.06
2023-01-02T17:11:07.077Z,101174.16
2023-01-02T17:13:33.666Z,101169.19
2023-01-02T17:16:00.328Z,101174.00
2023-01-02T17:18:27.018Z,101172.59
2023-01-02T17:20:53.559Z,101165.41
2023-01-02T17:23:20.197Z,101163.78
2023-01-02T17:25:46.970Z,101174.72
2023-01-02T17:28:14.341Z,101169.56
2023-01-02T17:30:42.768Z,101173.44
2023-01-02T17:33:09.398Z,101172.75
2023-01-02T17:35:36.679Z,101176.28
2023-01-02T17:38:03.609Z,101178.09
2023-01-02T17:40:30.264Z,101182.53
2023-01-02T17:42:57.603Z,101184.34
2023-01-02T17:45:24.716Z,101182.63
2023-01-02T17:48:07.400Z,101183.78
2023-01-02T17:50:37.013Z,101182.06
2023-01-02T17:53:03.577Z,101184.84
2023-01-02T17:55:30.126Z,101168.09
2023-01-02T17:57:56.768Z,101174.53
2023-01-02T18:00:23.762Z,101177.28
2023-01-02T18:02:52.722Z,101178.38
2023-01-02T18:05:19.500Z,101182.00
2023-01-02T18:07:46.131Z,101167.09
2023-01-02T18:10:17.560Z,101182.41
2023-01-02T18:12:45.999Z,101171.03
2023-01-02T18:15:15.634Z,101184.63
2023-01-02T18:17:42.842Z,101173.34
2023-01-02T18:20:18.385Z,101168.16
2023-01-02T18:22:49.634Z,101172.69
2023-01-02T18:25:21.132Z,101180.06
2023-01-02T18:27:48.380Z,101177.56
2023-01-02T18:30:24.681Z,101182.28
2023-01-02T18:33:01.669Z,101171.84
2023-01-02T18:35:57.384Z,101177.22
2023-01-02T18:38:42.186Z,101173.00
2023-01-02T18:41:17.992Z,101165.13
2023-01-02T18:43:45.559Z,101165.25
2023-01-02T18:47:02.151Z,101166.97
2023-01-02T18:49:29.962Z,101171.47
2023-01-02T18:52:02.450Z,101167.25
2023-01-02T18:54:32.025Z,101165.75
2023-01-02T18:57:14.825Z,101167.53
2023-01-02T18:59:43.999Z,101174.75
2023-01-02T19:02:49.240Z,101168.59
2023-01-02T19:05:26.594Z,101167.94
2023-01-02T19:08:08.344Z,101173.38
2023-01-02T19:10:42.863Z,101170.81
2023-01-02T19:13:19.381Z,101178.84
2023-01-02T19:16:01.963Z,101175.31
2023-01-02T19:18:43.242Z,101180.00
2023-01-02T19:21:09.935Z,101183.63
2023-01-02T19:23:58.580Z,101180.19
2023-01-02T19:26:34.770Z,101182.84
2023-01-02T19:29:11.655Z,101182.84
2023-01-02T19:32:22.581Z,101179.34
2023-01-02T19:34:54.387Z,101181.13
2023-01-02T19:37:41.445Z,101178.09
2023-01-02T19:40:19.062Z,101185.16
2023-01-02T19:42:50.076Z,101177.13
2023-01-02T19:45:18.153Z,101182.56
2023-01-02T19:47:45.559Z,101180.94
2023-01-02T19:50:14.994Z,101187.34
2023-01-02T19:52:42.241Z,101184.66
2023-01-02T19:55:10.059Z,101186.50
2023-01-02T19:57:36.753Z,101189.94
2023-01-02T20:00:07.101Z,101191.75
2023-01-02T20:02:34.280Z,101189.94
2023-01-02T20:05:01.042Z,101190.69
2023-01-02T20:07:27.665Z,101197.00
2023-01-02T20:09:54.340Z,101196.16
2023-01-02T20:12:30.453Z,101198.72
2023-01-02T20:14:58.072Z,101195.00
2023-01-02T20:17:25.092Z,101201.22
2023-01-02T20:19:51.758Z,101195.88
2023-01-02T20:22:18.675Z,101198.47
2023-01-02T20:24:45.245Z,101204.66
2023-01-02T20:27:14.109Z,101202.84
2023-01-02T20:29:41.704Z,101211.63
2023-01-02T20:32:08.525Z,101204.56
2023-01-02T20:34:35.130Z,101202.66
2023-01-02T20:37:01.741Z,101208.22
2023-01-02T20:39:28.524Z,101202.09
2023-01-02T20:41:55.202Z,101209.16
2023-01-02T20:44:21.911Z,101207.44
2023-01-02T20:46:48.576Z,101198.53
2023-01-02T20:49:16.507Z,101207.53
2023-01-02T20:51:43.385Z,101204.78
2023-01-02T20:54:10.819Z,101210.97
2023-01-02T20:56:37.459Z,101206.38
2023-01-02T20:59:04.217Z,101201.13
2023-01-02T21:01:30.994Z,101200.19
2023-01-02T21:03:57.785Z,101199.41
2023-01-02T21:06:24.429Z,101203.91
2023-01-02T21:08:51.676Z,101195.78
2023-01-02T21:11:18.389Z,101201.13
2023-01-02T21:13:45.123Z,101203.81
2023-01-02T21:16:11.777Z,101198.53
2023-01-02T21:18:40.734Z,101206.50
2023-01-02T21:21:10.645Z,101209.16
2023-01-02T21:23:38.965Z,101209.16
2023-01-02T21:26:07.298Z,101208.28
2023-01-02T21:28:34.238Z,101212.69
2023-01-02T21:31:01.056Z,101214.53
2023-01-02T21:33:29.299Z,101213.56
2023-01-02T21:35:58.162Z,101217.00
2023-01-02T21:38:26.694Z,101216.91
2023-01-02T21:40:54.793Z,101214.16
2023-01-02T21:43:22.414Z,101220.34
2023-01-02T21:45:49.219Z,101221.22
2023-01-02T21:48:15.775Z,101222.94
2023-01-02T21:50:42.357Z,101219.28
2023-01-02T21:53:08.974Z,101227.31
2023-01-02T21:55:35.633Z,101229.16
2023-01-02T21:58:12.816Z,101224.66
2023-01-02T22:00:40.656Z,101228.13
2023-01-02T22:03:07.407Z,101226.28
2023-01-02T22:05:34.142Z,101227.16
2023-01-02T22:08:00.858Z,101231.63
2023-01-02T22:10:27.604Z,101237.00
2023-01-02T22:12:54.136Z,101230.78
2023-01-02T22:15:20.765Z,101230.97
2023-01-02T22:17:47.325Z,101230.47
2023-01-02T22:20:14.653Z,101235.53
2023-01-02T22:22:41.437Z,101236.88
2023-01-02T22:25:09.389Z,101234.63
2023-01-02T22:27:36.327Z,101237.78
2023-01-02T22:30:23.337Z,101235.56
2023-01-02T22:32:50.767Z,101234.19
2023-01-02T22:35:17.535Z,101238.28
2023-01-02T22:37:44.077Z,101239.50
2023-01-02T22:40:11.229Z,101235.38
2023-01-02T22:43:05.398Z,101229.44
2023-01-02T22:45:42.615Z,101238.16
2023-01-02T22:48:16.944Z,101238.41
2023-01-02T22:50:45.530Z,101226.38
2023-01-02T22:53:26.499Z,101214.38
2023-01-02T22:55:53.894Z,101231.63
2023-01-02T22:58:21.494Z,101238.75
2023-01-02T23:00:57.374Z,101230.13
2023-01-02T23:03:24.204Z,101232.13
2023-01-02T23:05:50.769Z,101236.59
2023-01-02T23:08:17.349Z,101239.44
2023-01-02T23:10:43.902Z,101233.16
2023-01-02T23:13:10.609Z,101226.16
2023-01-02T23:15:59.282Z,101234.19
2023-01-02T23:18:44.639Z,101233.50
2023-01-02T23:21:11.465Z,101241.66
2023-01-02T23:23:38.176Z,101237.19
2023-01-02T23:26:06.248Z,101236.31
2023-01-02T23:29:05.367Z,101237.34
2023-01-02T23:31:21.213Z,101235.81
2023-01-02T23:33:47.836Z,101232.28
2023-01-02T23:36:14.519Z,101233.38
2023-01-02T23:38:41.135Z,101237.09
2023-01-02T23:41:07.761Z,101238.91
2023-01-02T23:43:34.687Z,101234.59
2023-01-02T23:46:01.265Z,101227.59
2023-01-02T23:48:27.838Z,101224.16
2023-01-02T23:51:02.004Z,101218.97
2023-01-02T23:53:29.034Z,101229.03
2023-01-02T23:55:56.421Z,101235.34
2023-01-02T23:58:23.906Z,101235.53
